^^
Station Historical Data
Daily Summary for January 13, 2018 Units:  Metric    English   Both
« Previous Day
Next Day »
Daily Weekly Monthly Yearly Custom
  High: Low: Average:
Temperature: -17.8 °C -11.2 °C -9 °C
Dew Point: -17.8 °C -17.4 °C -15.9 °C
Humidity: Humidity% 49% 57%
Wind Speed: 0km/h 1.9km/h 7.1km/h
Wind Gust: 0km/h - -
Wind- - ESE
Pressure: 0 hPa 1036.1 hPa -
Precipitation: 0 mm    
Historical Graphs
 
 
Tabular Data for January 13, 2018
Time Temperature Dew Point Pressure Wind Wind Speed Wind Gust Humidity Rainfall Rate (Hourly)
-17.8 °C -17.8 °C 0 hPa Calm     Humidity% 0 mm
00:05 -10.2 °C -16.4 °C 1036.1 hPa North 17.7 km/h 17.7 km/h 60% 0 mm
00:12 -10.2 °C -16.3 °C 1036.1 hPa NNE 9.3 km/h 9.3 km/h 61% 0 mm
00:21 -10.2 °C -16.1 °C 1036.1 hPa North 13 km/h 13 km/h 62% 0 mm
00:35 -10.1 °C -15.8 °C 1036.1 hPa North 9.3 km/h 9.3 km/h 63% 0 mm
00:46 -10.2 °C -15.7 °C 1036.5 hPa North 5.6 km/h 5.6 km/h 64% 0 mm
00:52 -10.2 °C -16.1 °C 1036.1 hPa North 9.3 km/h 9.3 km/h 62% 0 mm
01:01 -10.3 °C -16.4 °C 1036.5 hPa North 20.4 km/h 20.4 km/h 61% 0 mm
01:09 -10.3 °C -16.4 °C 1036.5 hPa NE 9.7 km/h 9.7 km/h 61% 0 mm
01:18 -10.3 °C -16.8 °C 1036.5 hPa North 14.8 km/h 14.8 km/h 59% 0 mm
01:44 -10.3 °C -16.8 °C 1036.8 hPa NE 18.5 km/h 18.5 km/h 59% 0 mm
01:49 -10.3 °C -16.6 °C 1037.1 hPa North 13 km/h 13 km/h 60% 0 mm
01:57 -10.3 °C -16.4 °C 1037.1 hPa NNE 13 km/h 13 km/h 61% 0 mm
02:06 -10.3 °C -16.4 °C 1037.5 hPa North 17.7 km/h 17.7 km/h 61% 0 mm
02:11 -10.3 °C -16.6 °C 1037.5 hPa NNW 14.8 km/h 14.8 km/h 60% 0 mm
02:16 -10.4 °C -16.7 °C 1037.5 hPa North 9.3 km/h 9.3 km/h 60% 0 mm
02:46 -10.4 °C -16.2 °C 1037.8 hPa North 5.6 km/h 5.6 km/h 63% 0 mm
02:51 -10.4 °C -16.2 °C 1037.8 hPa North 11.1 km/h 11.1 km/h 63% 0 mm
02:56 -10.6 °C -16.6 °C 1037.8 hPa NNE 16.7 km/h 16.7 km/h 61% 0 mm
03:04 -10.7 °C -16.7 °C 1038.1 hPa NNE 18.5 km/h 18.5 km/h 61% 0 mm
03:17 -10.7 °C -17.2 °C 1038.1 hPa North 16.7 km/h 16.7 km/h 59% 0 mm
03:23 -10.7 °C -17 °C 1038.1 hPa North 5.6 km/h 5.6 km/h 60% 0 mm
03:28 -10.7 °C -17.2 °C 1038.1 hPa North 13 km/h 13 km/h 59% 0 mm
03:34 -10.8 °C -17.2 °C 1038.1 hPa NNE 13 km/h 13 km/h 59% 0 mm
03:46 -10.8 °C -17.1 °C 1037.8 hPa NNE 5.6 km/h 5.6 km/h 60% 0 mm
03:55 -10.8 °C -17.1 °C 1038.1 hPa North 11.3 km/h 11.3 km/h 60% 0 mm
04:06 -10.8 °C -17.1 °C 1038.1 hPa North 14.5 km/h 14.5 km/h 60% 0 mm
04:24 -10.9 °C -17.2 °C 1038.5 hPa NNW 11.1 km/h 11.1 km/h 60% 0 mm
04:33 -10.9 °C -17.2 °C 1038.5 hPa NNE 13 km/h 13 km/h 60% 0 mm
04:40 -11 °C -17.3 °C 1038.5 hPa North 13 km/h 13 km/h 60% 0 mm
05:06 -10.9 °C -17 °C 1038.5 hPa NNE 7.4 km/h 7.4 km/h 61% 0 mm
05:13 -11 °C -17.3 °C 1038.5 hPa NNE 5.6 km/h 5.6 km/h 60% 0 mm
05:20 -11 °C -17.1 °C 1038.5 hPa NNE 1.9 km/h 1.9 km/h 61% 0 mm
05:31 -10.9 °C -16.8 °C 1038.5 hPa ENE 6.4 km/h 6.4 km/h 62% 0 mm
05:40 -10.9 °C -17 °C 1038.5 hPa NNE 6.4 km/h 6.4 km/h 61% 0 mm
05:57 -10.9 °C -16.8 °C 1038.8 hPa North 5.6 km/h 5.6 km/h 62% 0 mm
06:03 -10.9 °C -16.8 °C 1038.8 hPa North 11.1 km/h 11.1 km/h 62% 0 mm
06:11 -10.9 °C -16.6 °C 1038.8 hPa North 5.6 km/h 6.4 km/h 63% 0 mm
06:18 -11 °C -17.3 °C 1038.8 hPa North 5.6 km/h 5.6 km/h 60% 0 mm
06:24 -11.1 °C -17.1 °C 1038.8 hPa NNE 5.6 km/h 5.6 km/h 61% 0 mm
06:31 -11.1 °C -17.3 °C 1039.2 hPa NNE 11.3 km/h 11.3 km/h 60% 0 mm
06:37 -11 °C -17.1 °C 1039.2 hPa NNE 7.4 km/h 7.4 km/h 61% 0 mm
06:52 -11.1 °C -17.3 °C 1039.5 hPa North 5.6 km/h 5.6 km/h 60% 0 mm
07:04 -11 °C -17.1 °C 1039.5 hPa NNE 13 km/h 13 km/h 61% 0 mm
07:13 -11 °C -16.5 °C 1039.5 hPa North 3.2 km/h 4.5 km/h 64% 0 mm
07:19 -11 °C -16.5 °C 1039.5 hPa NNE 3.7 km/h 3.7 km/h 64% 0 mm
07:28 -11 °C -16.5 °C 1039.5 hPa NNE 7.4 km/h 7.4 km/h 64% 0 mm
07:33 -11.1 °C -16.8 °C 1039.5 hPa NNE 5.6 km/h 5.6 km/h 63% 0 mm
07:47 -11.2 °C -17.2 °C 1039.5 hPa North 8 km/h 8 km/h 61% 0 mm
07:59 -11.2 °C -17.4 °C 1039.8 hPa North 9.3 km/h 9.3 km/h 60% 0 mm
08:13 -11.1 °C -16.7 °C 1040.2 hPa NNE 5.6 km/h 5.6 km/h 63% 0 mm
08:27 -11.1 °C -16.8 °C 1039.8 hPa North 5.6 km/h 5.6 km/h 63% 0 mm
08:40 -11.2 °C -17.2 °C 1040.2 hPa North 5.6 km/h 5.6 km/h 61% 0 mm
08:55 -10.9 °C -17.2 °C 1040.5 hPa NNE 7.4 km/h 7.4 km/h 60% 0 mm
09:04 -10.8 °C -17.3 °C 1040.5 hPa NNW 7.4 km/h 7.4 km/h 59% 0 mm
09:12 -10.7 °C -17.2 °C 1040.5 hPa North 5.6 km/h 5.6 km/h 59% 0 mm
09:17 -10.7 °C -16.7 °C 1040.5 hPa WNW 3.7 km/h 3.7 km/h 61% 0 mm
09:26 -10.7 °C -16.9 °C 1040.9 hPa NNE 8 km/h 8 km/h 60% 0 mm
09:34 -10.6 °C -16.7 °C 1040.9 hPa NNE 3.7 km/h 4.2 km/h 61% 0 mm
09:39 -10.6 °C -16.8 °C 1040.9 hPa North 5.6 km/h 5.6 km/h 60% 0 mm
09:45 -10.5 °C -16.8 °C 1040.9 hPa North 5.6 km/h 5.6 km/h 60% 0 mm
09:53 -10.4 °C -16.7 °C 1040.9 hPa NW 5.6 km/h 5.6 km/h 60% 0 mm
10:04 -10.2 °C -16.3 °C 1041.2 hPa NNW 5.6 km/h 5.6 km/h 61% 0 mm
10:12 -10.3 °C -16.6 °C 1041.2 hPa North 7.4 km/h 7.4 km/h 60% 0 mm
10:27 -10 °C -16.1 °C 1041.2 hPa NNW 3.2 km/h 3.2 km/h 61% 0 mm
10:34 -9.8 °C -16.1 °C 1041.2 hPa North 5.6 km/h 5.6 km/h 60% 0 mm
11:00 -9.6 °C -16.3 °C 1040.9 hPa North 3.7 km/h 3.7 km/h 58% 0 mm
11:05 -9.6 °C -16.3 °C 1040.9 hPa North 3.7 km/h 3.7 km/h 58% 0 mm
11:16 -9.5 °C -16.1 °C 1040.9 hPa NNW 5.6 km/h 5.6 km/h 59% 0 mm
11:23 -9.4 °C -16.2 °C 1040.9 hPa NNW 5.6 km/h 5.6 km/h 58% 0 mm
11:28 -9.3 °C -16.1 °C 1040.5 hPa NNW 5.6 km/h 5.6 km/h 58% 0 mm
11:38 -9 °C -16.2 °C 1040.2 hPa NNE 13 km/h 13 km/h 56% 0 mm
11:43 -9.2 °C -16.2 °C 1040.2 hPa North 3.7 km/h 3.7 km/h 57% 0 mm
11:49 -9.2 °C -16.2 °C 1040.2 hPa NNE 3.7 km/h 3.7 km/h 57% 0 mm
11:54 -9.2 °C -16.2 °C 1039.8 hPa NW 3.7 km/h 3.7 km/h 57% 0 mm
12:01 -9.1 °C -16.5 °C 1039.8 hPa East 5.6 km/h 5.6 km/h 55% 0 mm
12:16 -8.5 °C -15.5 °C 1039.5 hPa North 7.4 km/h 7.4 km/h 57% 0 mm
12:27 -8.8 °C -16.2 °C 1039.5 hPa NNE 3.7 km/h 3.7 km/h 55% 0 mm
12:39 -8.7 °C -15.9 °C 1039.2 hPa NNE 3.7 km/h 3.7 km/h 56% 0 mm
12:44 -8.4 °C -15.8 °C 1039.2 hPa NNE 5.6 km/h 5.6 km/h 55% 0 mm
12:53 -8.2 °C -15.7 °C 1039.2 hPa ENE 3.7 km/h 3.7 km/h 55% 0 mm
12:58 -8.1 °C -16 °C 1038.8 hPa NE 3.7 km/h 3.7 km/h 53% 0 mm
13:08 -7.8 °C -15.1 °C 1038.8 hPa NNE 11.1 km/h 11.1 km/h 56% 0 mm
13:18 -7.9 °C -15.2 °C 1038.5 hPa NE 5.6 km/h 5.6 km/h 56% 0 mm
13:25 -7.7 °C -15.2 °C 1038.5 hPa NE 1.9 km/h 2.6 km/h 55% 0 mm
13:33 -7.6 °C -14.7 °C 1038.1 hPa NE 3.7 km/h 3.7 km/h 57% 0 mm
13:58 -7.1 °C -14.4 °C 1038.1 hPa North 9.7 km/h 9.7 km/h 56% 0 mm
14:07 -7.3 °C -14.8 °C 1037.8 hPa ENE 3.7 km/h 3.7 km/h 55% 0 mm
14:13 -7.3 °C -15 °C 1037.8 hPa ENE 3.7 km/h 3.7 km/h 54% 0 mm
14:19 -7.1 °C -14.6 °C 1037.8 hPa ENE 1.9 km/h 1.9 km/h 55% 0 mm
14:24 -7.2 °C -15.1 °C 1037.8 hPa NNE 5.6 km/h 5.6 km/h 53% 0 mm
14:30 -7.3 °C -14.8 °C 1037.8 hPa NE 3.7 km/h 3.7 km/h 55% 0 mm
14:37 -6.9 °C -14.5 °C 1037.8 hPa ENE 5.6 km/h 5.6 km/h 55% 0 mm
14:49 -7.1 °C -15.1 °C 1037.5 hPa NE 5.6 km/h 5.6 km/h 53% 0 mm
14:55 -7.1 °C -14.4 °C 1037.5 hPa NE 1.9 km/h 1.9 km/h 56% 0 mm
15:03 -7.1 °C -15.1 °C 1037.5 hPa NNE 5.6 km/h 5.6 km/h 53% 0 mm
15:10 -6.9 °C -14.5 °C 1037.5 hPa North 1.9 km/h 1.9 km/h 55% 0 mm
15:20 -6.8 °C -14.8 °C 1037.1 hPa NE 5.6 km/h 5.6 km/h 53% 0 mm
15:29 -6.8 °C -15 °C 1037.1 hPa ENE 1.9 km/h 1.9 km/h 52% 0 mm
15:37 -6.7 °C -14.7 °C 1037.1 hPa ENE 5.6 km/h 5.6 km/h 53% 0 mm
15:56 -6.7 °C -15.2 °C 1037.5 hPa ENE 1.9 km/h 1.9 km/h 51% 0 mm
16:07 -6.8 °C -15 °C 1037.1 hPa East 3.7 km/h 3.7 km/h 52% 0 mm
16:16 -6.8 °C -15.2 °C 1037.1 hPa East 3.7 km/h 3.7 km/h 51% 0 mm
16:26 -6.8 °C -15.2 °C 1037.1 hPa East 1.9 km/h 1.9 km/h 51% 0 mm
16:34 -6.8 °C -15.3 °C 1037.1 hPa East 5.6 km/h 5.6 km/h 51% 0 mm
16:44 -6.9 °C -15.8 °C 1037.1 hPa East 3.7 km/h 3.7 km/h 49% 0 mm
16:49 -6.9 °C -15.6 °C 1037.1 hPa SE 5.6 km/h 5.6 km/h 50% 0 mm
17:01 -6.8 °C -15.6 °C 1036.8 hPa SE 5.6 km/h 5.6 km/h 50% 0 mm
17:13 -6.8 °C -15.3 °C 1036.8 hPa ESE 3.7 km/h 3.7 km/h 51% 0 mm
17:22 -6.8 °C -15.1 °C 1036.8 hPa ESE 3.7 km/h 3.7 km/h 52% 0 mm
17:27 -6.8 °C -15.2 °C 1036.8 hPa SE 7.4 km/h 7.4 km/h 51% 0 mm
17:37 -6.8 °C -15.3 °C 1036.8 hPa East 6.4 km/h 6.4 km/h 51% 0 mm
17:43 -6.9 °C -15.3 °C 1036.8 hPa East 3.7 km/h 3.7 km/h 51% 0 mm
17:51 -6.9 °C -15.6 °C 1036.8 hPa East 5.6 km/h 5.6 km/h 50% 0 mm
17:59 -6.9 °C -15.6 °C 1036.8 hPa ENE 3.7 km/h 3.7 km/h 50% 0 mm
18:17 -7 °C -15.7 °C 1036.5 hPa ESE 5.6 km/h 5.6 km/h 50% 0 mm
18:22 -7.1 °C -15.5 °C 1036.5 hPa ESE 5.6 km/h 5.6 km/h 51% 0 mm
18:29 -7.1 °C -15.3 °C 1036.5 hPa ESE 5.6 km/h 5.6 km/h 52% 0 mm
18:35 -7.2 °C -15.4 °C 1036.5 hPa ESE 3.7 km/h 3.7 km/h 52% 0 mm
18:50 -7.4 °C -15.3 °C 1036.8 hPa East 5.6 km/h 5.6 km/h 53% 0 mm
18:56 -7.4 °C -15.4 °C 1036.8 hPa SE 4.8 km/h 4.8 km/h 53% 0 mm
19:05 -7.5 °C -15.4 °C 1036.8 hPa SE 5.6 km/h 5.6 km/h 53% 0 mm
19:14 -7.6 °C -15.6 °C 1037.1 hPa SE 1.9 km/h 2.3 km/h 53% 0 mm
19:34 -7.5 °C -15.4 °C 1037.1 hPa ESE 5.6 km/h 5.6 km/h 53% 0 mm
19:39 -7.4 °C -15.4 °C 1037.1 hPa ESE 5.6 km/h 5.6 km/h 53% 0 mm
19:46 -7.5 °C -15 °C 1036.8 hPa ESE 5.6 km/h 5.6 km/h 55% 0 mm
19:51 -7.5 °C -15.2 °C 1036.8 hPa ESE 3.7 km/h 3.7 km/h 54% 0 mm
20:02 -7.5 °C -15.2 °C 1036.8 hPa East 3.7 km/h 3.7 km/h 54% 0 mm
20:13 -7.5 °C -15.2 °C 1037.1 hPa ESE 5.6 km/h 5.6 km/h 54% 0 mm
20:19 -7.5 °C -15.2 °C 1037.1 hPa SE 3.7 km/h 3.7 km/h 54% 0 mm
20:26 -7.6 °C -15.3 °C 1037.1 hPa SE 7.4 km/h 7.4 km/h 54% 0 mm
20:36 -7.6 °C -15.3 °C 1037.1 hPa SE 5.6 km/h 5.6 km/h 54% 0 mm
20:48 -7.6 °C -15.1 °C 1037.1 hPa SE 5.6 km/h 5.6 km/h 55% 0 mm
20:55 -7.6 °C -15.3 °C 1037.1 hPa SE 5.6 km/h 5.6 km/h 54% 0 mm
21:12 -7.6 °C -15.3 °C 1037.1 hPa ESE 7.4 km/h 7.4 km/h 54% 0 mm
21:18 -7.6 °C -15.3 °C 1037.1 hPa ESE 5.6 km/h 5.6 km/h 54% 0 mm
21:40 -7.6 °C -15.1 °C 1036.8 hPa SE 8 km/h 8 km/h 55% 0 mm
21:57 -7.6 °C -15.1 °C 1036.5 hPa SSE 11.1 km/h 11.1 km/h 55% 0 mm
22:06 -7.6 °C -14.8 °C 1036.5 hPa East 5.6 km/h 5.6 km/h 56% 0 mm
22:13 -7.6 °C -14.8 °C 1036.5 hPa ESE 11.1 km/h 11.1 km/h 56% 0 mm
22:22 -7.6 °C -14.6 °C 1036.5 hPa East 5.6 km/h 5.6 km/h 57% 0 mm
22:27 -7.6 °C -14.6 °C 1036.5 hPa ESE 5.6 km/h 5.6 km/h 57% 0 mm
22:41 -7.6 °C -14.7 °C 1036.5 hPa SE 7.4 km/h 7.4 km/h 57% 0 mm
22:53 -7.6 °C -14.7 °C 1036.5 hPa ESE 13 km/h 13 km/h 57% 0 mm
23:03 -7.6 °C -14.6 °C 1036.5 hPa SE 7.4 km/h 7.4 km/h 57% 0 mm
23:20 -7.4 °C -14.5 °C 1036.1 hPa ENE 5.6 km/h 5.6 km/h 57% 0 mm
23:25 -7.4 °C -14.7 °C 1036.1 hPa SE 14.8 km/h 14.8 km/h 56% 0 mm
23:31 -7.4 °C -14.5 °C 1036.1 hPa SE 9.3 km/h 9.3 km/h 57% 0 mm
23:36 -7.4 °C -14.5 °C 1036.1 hPa ESE 5.6 km/h 5.6 km/h 57% 0 mm
23:43 -7.5 °C -14.6 °C 1036.1 hPa ESE 14.8 km/h 14.8 km/h 57% 0 mm
23:52 -7.5 °C -14.6 °C 1036.1 hPa SE 7.4 km/h 7.4 km/h 57% 0 mm
23:58 -7.5 °C -14.6 °C 1036.1 hPa SE 14.8 km/h 14.8 km/h 57% 0 mm
Live Lenexa Weather
Compliments of Weather Underground - 1.5 mb